sensor_id;sensor_type;location;lat;lon;timestamp;P1;durP1;ratioP1;P2;durP2;ratioP2
68744;SDS011;66104;45.456;11.064;2023-03-04T00:01:17;10.50;;;5.90;;
68744;SDS011;66104;45.456;11.064;2023-03-04T00:03:54;10.50;;;5.90;;
68744;SDS011;66104;45.456;11.064;2023-03-04T00:06:31;11.80;;;6.70;;
68744;SDS011;66104;45.456;11.064;2023-03-04T00:09:08;8.70;;;5.60;;
68744;SDS011;66104;45.456;11.064;2023-03-04T00:11:44;8.40;;;5.10;;
68744;SDS011;66104;45.456;11.064;2023-03-04T00:14:22;11.30;;;5.80;;
68744;SDS011;66104;45.456;11.064;2023-03-04T00:17:00;9.80;;;6.00;;
68744;SDS011;66104;45.456;11.064;2023-03-04T00:19:37;11.30;;;5.50;;
68744;SDS011;66104;45.456;11.064;2023-03-04T00:22:14;11.40;;;6.00;;
68744;SDS011;66104;45.456;11.064;2023-03-04T00:24:51;10.20;;;6.20;;
68744;SDS011;66104;45.456;11.064;2023-03-04T00:27:28;12.00;;;5.60;;
68744;SDS011;66104;45.456;11.064;2023-03-04T00:30:09;12.60;;;6.00;;
68744;SDS011;66104;45.456;11.064;2023-03-04T00:32:48;9.80;;;5.40;;
68744;SDS011;66104;45.456;11.064;2023-03-04T00:35:26;10.00;;;5.60;;
68744;SDS011;66104;45.456;11.064;2023-03-04T00:38:03;10.30;;;5.30;;
68744;SDS011;66104;45.456;11.064;2023-03-04T00:40:41;9.10;;;5.10;;
68744;SDS011;66104;45.456;11.064;2023-03-04T00:43:18;10.20;;;5.30;;
68744;SDS011;66104;45.456;11.064;2023-03-04T00:45:55;8.70;;;5.00;;
68744;SDS011;66104;45.456;11.064;2023-03-04T00:48:32;9.20;;;5.50;;
68744;SDS011;66104;45.456;11.064;2023-03-04T00:51:11;11.00;;;6.00;;
68744;SDS011;66104;45.456;11.064;2023-03-04T00:53:47;10.10;;;5.60;;
68744;SDS011;66104;45.456;11.064;2023-03-04T00:56:24;11.60;;;6.10;;
68744;SDS011;66104;45.456;11.064;2023-03-04T00:59:00;10.40;;;5.20;;
68744;SDS011;66104;45.456;11.064;2023-03-04T01:01:37;10.40;;;5.10;;
68744;SDS011;66104;45.456;11.064;2023-03-04T01:04:14;13.90;;;5.70;;
68744;SDS011;66104;45.456;11.064;2023-03-04T01:06:50;8.60;;;5.00;;
68744;SDS011;66104;45.456;11.064;2023-03-04T01:09:27;11.10;;;6.00;;
68744;SDS011;66104;45.456;11.064;2023-03-04T01:12:05;10.40;;;5.10;;
68744;SDS011;66104;45.456;11.064;2023-03-04T01:14:42;11.30;;;4.90;;
68744;SDS011;66104;45.456;11.064;2023-03-04T01:17:20;7.50;;;4.80;;
68744;SDS011;66104;45.456;11.064;2023-03-04T01:19:55;11.50;;;5.80;;
68744;SDS011;66104;45.456;11.064;2023-03-04T01:22:32;8.40;;;5.20;;
68744;SDS011;66104;45.456;11.064;2023-03-04T01:25:10;12.20;;;5.20;;
68744;SDS011;66104;45.456;11.064;2023-03-04T01:27:46;9.00;;;5.00;;
68744;SDS011;66104;45.456;11.064;2023-03-04T01:30:23;10.30;;;5.30;;
68744;SDS011;66104;45.456;11.064;2023-03-04T01:32:59;8.90;;;4.90;;
68744;SDS011;66104;45.456;11.064;2023-03-04T01:35:36;12.30;;;6.40;;
68744;SDS011;66104;45.456;11.064;2023-03-04T01:38:12;10.20;;;5.50;;
68744;SDS011;66104;45.456;11.064;2023-03-04T01:40:48;9.60;;;5.70;;
68744;SDS011;66104;45.456;11.064;2023-03-04T01:43:26;9.80;;;5.90;;
68744;SDS011;66104;45.456;11.064;2023-03-04T01:46:04;8.50;;;5.30;;
68744;SDS011;66104;45.456;11.064;2023-03-04T01:48:42;11.30;;;5.90;;
68744;SDS011;66104;45.456;11.064;2023-03-04T01:51:19;10.20;;;5.00;;
68744;SDS011;66104;45.456;11.064;2023-03-04T01:53:55;9.10;;;5.30;;
68744;SDS011;66104;45.456;11.064;2023-03-04T01:56:36;7.10;;;4.90;;
68744;SDS011;66104;45.456;11.064;2023-03-04T01:59:14;9.20;;;4.70;;
68744;SDS011;66104;45.456;11.064;2023-03-04T02:01:53;8.50;;;5.60;;
68744;SDS011;66104;45.456;11.064;2023-03-04T02:04:33;9.20;;;5.40;;
68744;SDS011;66104;45.456;11.064;2023-03-04T02:07:09;9.10;;;5.10;;
68744;SDS011;66104;45.456;11.064;2023-03-04T02:09:45;11.20;;;5.90;;
68744;SDS011;66104;45.456;11.064;2023-03-04T02:12:22;12.80;;;5.70;;
68744;SDS011;66104;45.456;11.064;2023-03-04T02:14:59;10.70;;;5.40;;
68744;SDS011;66104;45.456;11.064;2023-03-04T02:17:36;9.70;;;5.70;;
68744;SDS011;66104;45.456;11.064;2023-03-04T02:20:21;9.30;;;5.60;;
68744;SDS011;66104;45.456;11.064;2023-03-04T02:23:16;8.60;;;5.20;;
68744;SDS011;66104;45.456;11.064;2023-03-04T02:26:12;9.10;;;5.00;;
68744;SDS011;66104;45.456;11.064;2023-03-04T02:28:53;10.70;;;5.60;;
68744;SDS011;66104;45.456;11.064;2023-03-04T02:31:35;10.80;;;5.50;;
68744;SDS011;66104;45.456;11.064;2023-03-04T02:34:16;9.30;;;5.30;;
68744;SDS011;66104;45.456;11.064;2023-03-04T02:36:57;9.50;;;5.40;;
68744;SDS011;66104;45.456;11.064;2023-03-04T02:39:38;10.30;;;5.30;;
68744;SDS011;66104;45.456;11.064;2023-03-04T02:42:15;10.50;;;5.70;;
68744;SDS011;66104;45.456;11.064;2023-03-04T02:45:02;11.60;;;6.50;;
68744;SDS011;66104;45.456;11.064;2023-03-04T02:47:52;9.70;;;5.70;;
68744;SDS011;66104;45.456;11.064;2023-03-04T02:50:29;11.70;;;5.70;;
68744;SDS011;66104;45.456;11.064;2023-03-04T02:53:08;10.40;;;5.70;;
68744;SDS011;66104;45.456;11.064;2023-03-04T02:55:45;9.50;;;5.60;;
68744;SDS011;66104;45.456;11.064;2023-03-04T02:58:23;11.50;;;6.70;;
68744;SDS011;66104;45.456;11.064;2023-03-04T03:01:00;10.70;;;6.60;;
68744;SDS011;66104;45.456;11.064;2023-03-04T03:03:36;12.20;;;6.70;;
68744;SDS011;66104;45.456;11.064;2023-03-04T03:06:13;12.20;;;6.30;;
68744;SDS011;66104;45.456;11.064;2023-03-04T03:08:51;12.60;;;6.00;;
68744;SDS011;66104;45.456;11.064;2023-03-04T03:11:27;11.90;;;5.80;;
68744;SDS011;66104;45.456;11.064;2023-03-04T03:14:04;9.70;;;5.70;;
68744;SDS011;66104;45.456;11.064;2023-03-04T03:16:41;10.50;;;6.10;;
68744;SDS011;66104;45.456;11.064;2023-03-04T03:19:17;12.00;;;6.00;;
68744;SDS011;66104;45.456;11.064;2023-03-04T03:21:54;11.40;;;6.40;;
68744;SDS011;66104;45.456;11.064;2023-03-04T03:24:31;10.80;;;6.10;;
68744;SDS011;66104;45.456;11.064;2023-03-04T03:27:08;12.20;;;6.70;;
68744;SDS011;66104;45.456;11.064;2023-03-04T03:29:45;12.20;;;6.70;;
68744;SDS011;66104;45.456;11.064;2023-03-04T03:32:22;11.40;;;6.60;;
68744;SDS011;66104;45.456;11.064;2023-03-04T03:34:58;13.50;;;6.40;;
68744;SDS011;66104;45.456;11.064;2023-03-04T03:37:35;11.10;;;6.10;;
68744;SDS011;66104;45.456;11.064;2023-03-04T03:40:16;11.60;;;6.90;;
68744;SDS011;66104;45.456;11.064;2023-03-04T03:42:53;11.80;;;6.50;;
68744;SDS011;66104;45.456;11.064;2023-03-04T03:45:30;11.60;;;6.70;;
68744;SDS011;66104;45.456;11.064;2023-03-04T03:48:07;12.90;;;7.00;;
68744;SDS011;66104;45.456;11.064;2023-03-04T03:50:45;11.00;;;6.80;;
68744;SDS011;66104;45.456;11.064;2023-03-04T03:53:22;10.60;;;6.30;;
68744;SDS011;66104;45.456;11.064;2023-03-04T03:55:58;12.00;;;6.80;;
68744;SDS011;66104;45.456;11.064;2023-03-04T03:58:35;11.60;;;6.20;;
68744;SDS011;66104;45.456;11.064;2023-03-04T04:01:12;11.80;;;6.70;;
68744;SDS011;66104;45.456;11.064;2023-03-04T04:03:49;10.90;;;6.70;;
68744;SDS011;66104;45.456;11.064;2023-03-04T04:06:26;13.00;;;6.50;;
68744;SDS011;66104;45.456;11.064;2023-03-04T04:09:03;16.10;;;6.40;;
68744;SDS011;66104;45.456;11.064;2023-03-04T04:11:40;11.80;;;6.40;;
68744;SDS011;66104;45.456;11.064;2023-03-04T04:14:18;13.50;;;6.70;;
68744;SDS011;66104;45.456;11.064;2023-03-04T04:16:57;13.10;;;7.10;;
68744;SDS011;66104;45.456;11.064;2023-03-04T04:19:34;14.70;;;7.30;;
68744;SDS011;66104;45.456;11.064;2023-03-04T04:22:14;12.00;;;8.20;;
68744;SDS011;66104;45.456;11.064;2023-03-04T04:24:52;14.10;;;6.90;;
68744;SDS011;66104;45.456;11.064;2023-03-04T04:27:30;15.10;;;6.80;;
68744;SDS011;66104;45.456;11.064;2023-03-04T04:30:12;15.00;;;7.10;;
68744;SDS011;66104;45.456;11.064;2023-03-04T04:32:49;11.50;;;6.70;;
68744;SDS011;66104;45.456;11.064;2023-03-04T04:35:26;16.00;;;8.40;;
68744;SDS011;66104;45.456;11.064;2023-03-04T04:38:03;14.00;;;8.60;;
68744;SDS011;66104;45.456;11.064;2023-03-04T04:40:39;14.20;;;7.80;;
68744;SDS011;66104;45.456;11.064;2023-03-04T04:43:17;14.10;;;8.70;;
68744;SDS011;66104;45.456;11.064;2023-03-04T04:45:54;14.20;;;8.70;;
68744;SDS011;66104;45.456;11.064;2023-03-04T04:48:32;13.40;;;8.30;;
68744;SDS011;66104;45.456;11.064;2023-03-04T04:51:10;18.10;;;8.70;;
68744;SDS011;66104;45.456;11.064;2023-03-04T04:53:46;17.90;;;10.40;;
68744;SDS011;66104;45.456;11.064;2023-03-04T04:56:24;17.10;;;10.30;;
68744;SDS011;66104;45.456;11.064;2023-03-04T04:59:02;17.40;;;10.00;;
68744;SDS011;66104;45.456;11.064;2023-03-04T05:01:40;17.80;;;9.80;;
68744;SDS011;66104;45.456;11.064;2023-03-04T05:04:17;17.20;;;10.10;;
68744;SDS011;66104;45.456;11.064;2023-03-04T05:06:54;16.80;;;9.30;;
68744;SDS011;66104;45.456;11.064;2023-03-04T05:09:30;17.80;;;10.70;;
68744;SDS011;66104;45.456;11.064;2023-03-04T05:12:08;22.30;;;9.80;;
68744;SDS011;66104;45.456;11.064;2023-03-04T05:14:44;18.10;;;10.40;;
68744;SDS011;66104;45.456;11.064;2023-03-04T05:17:20;21.50;;;10.50;;
68744;SDS011;66104;45.456;11.064;2023-03-04T05:19:58;19.40;;;11.00;;
68744;SDS011;66104;45.456;11.064;2023-03-04T05:22:34;15.80;;;9.40;;
68744;SDS011;66104;45.456;11.064;2023-03-04T05:25:13;16.80;;;9.60;;
68744;SDS011;66104;45.456;11.064;2023-03-04T05:27:50;16.70;;;9.20;;
68744;SDS011;66104;45.456;11.064;2023-03-04T05:30:27;14.50;;;9.10;;
68744;SDS011;66104;45.456;11.064;2023-03-04T05:33:04;16.50;;;9.70;;
68744;SDS011;66104;45.456;11.064;2023-03-04T05:35:41;18.30;;;10.30;;
68744;SDS011;66104;45.456;11.064;2023-03-04T05:38:19;23.50;;;10.80;;
68744;SDS011;66104;45.456;11.064;2023-03-04T05:40:59;20.50;;;11.60;;
68744;SDS011;66104;45.456;11.064;2023-03-04T05:43:37;17.60;;;10.40;;
68744;SDS011;66104;45.456;11.064;2023-03-04T05:46:16;23.40;;;11.60;;
68744;SDS011;66104;45.456;11.064;2023-03-04T05:48:56;22.10;;;12.20;;
68744;SDS011;66104;45.456;11.064;2023-03-04T05:51:33;19.90;;;11.30;;
68744;SDS011;66104;45.456;11.064;2023-03-04T05:54:10;20.30;;;11.60;;
68744;SDS011;66104;45.456;11.064;2023-03-04T05:56:47;20.10;;;11.50;;
68744;SDS011;66104;45.456;11.064;2023-03-04T05:59:23;24.60;;;12.20;;
68744;SDS011;66104;45.456;11.064;2023-03-04T06:02:00;24.40;;;12.60;;
68744;SDS011;66104;45.456;11.064;2023-03-04T06:04:37;24.40;;;13.60;;
68744;SDS011;66104;45.456;11.064;2023-03-04T06:07:14;20.80;;;12.30;;
68744;SDS011;66104;45.456;11.064;2023-03-04T06:09:51;21.60;;;12.00;;
68744;SDS011;66104;45.456;11.064;2023-03-04T06:12:28;21.30;;;11.50;;
68744;SDS011;66104;45.456;11.064;2023-03-04T06:15:05;15.10;;;9.90;;
68744;SDS011;66104;45.456;11.064;2023-03-04T06:17:44;21.50;;;10.40;;
68744;SDS011;66104;45.456;11.064;2023-03-04T06:20:21;20.60;;;11.40;;
68744;SDS011;66104;45.456;11.064;2023-03-04T06:22:58;20.90;;;11.50;;
68744;SDS011;66104;45.456;11.064;2023-03-04T06:25:35;21.90;;;12.30;;
68744;SDS011;66104;45.456;11.064;2023-03-04T06:28:12;21.40;;;12.80;;
68744;SDS011;66104;45.456;11.064;2023-03-04T06:30:50;20.90;;;12.70;;
68744;SDS011;66104;45.456;11.064;2023-03-04T06:33:28;19.60;;;12.10;;
68744;SDS011;66104;45.456;11.064;2023-03-04T06:36:08;22.40;;;12.80;;
68744;SDS011;66104;45.456;11.064;2023-03-04T06:38:46;19.40;;;11.70;;
68744;SDS011;66104;45.456;11.064;2023-03-04T06:41:25;23.00;;;12.80;;
68744;SDS011;66104;45.456;11.064;2023-03-04T06:44:01;19.70;;;11.80;;
68744;SDS011;66104;45.456;11.064;2023-03-04T06:46:38;22.10;;;13.00;;
68744;SDS011;66104;45.456;11.064;2023-03-04T06:49:16;18.80;;;12.00;;
68744;SDS011;66104;45.456;11.064;2023-03-04T06:51:52;23.80;;;12.80;;
68744;SDS011;66104;45.456;11.064;2023-03-04T06:54:30;21.20;;;12.30;;
68744;SDS011;66104;45.456;11.064;2023-03-04T06:57:07;21.60;;;11.80;;
68744;SDS011;66104;45.456;11.064;2023-03-04T06:59:44;22.60;;;12.20;;
68744;SDS011;66104;45.456;11.064;2023-03-04T07:02:21;24.90;;;12.70;;
68744;SDS011;66104;45.456;11.064;2023-03-04T07:04:57;20.00;;;11.70;;
68744;SDS011;66104;45.456;11.064;2023-03-04T07:07:35;20.60;;;12.70;;
68744;SDS011;66104;45.456;11.064;2023-03-04T07:12:52;19.20;;;10.90;;
68744;SDS011;66104;45.456;11.064;2023-03-04T07:15:28;19.30;;;9.00;;
68744;SDS011;66104;45.456;11.064;2023-03-04T07:18:06;14.70;;;9.20;;
68744;SDS011;66104;45.456;11.064;2023-03-04T07:20:43;14.60;;;9.30;;
68744;SDS011;66104;45.456;11.064;2023-03-04T07:23:20;14.70;;;9.20;;
68744;SDS011;66104;45.456;11.064;2023-03-04T07:25:57;15.80;;;9.60;;
68744;SDS011;66104;45.456;11.064;2023-03-04T07:28:34;16.10;;;9.20;;
68744;SDS011;66104;45.456;11.064;2023-03-04T07:31:21;18.20;;;10.60;;
68744;SDS011;66104;45.456;11.064;2023-03-04T07:34:01;15.70;;;9.20;;
68744;SDS011;66104;45.456;11.064;2023-03-04T07:36:38;18.60;;;9.90;;
68744;SDS011;66104;45.456;11.064;2023-03-04T07:39:15;16.10;;;10.20;;
68744;SDS011;66104;45.456;11.064;2023-03-04T07:41:52;16.80;;;9.40;;
68744;SDS011;66104;45.456;11.064;2023-03-04T07:44:29;15.10;;;9.00;;
68744;SDS011;66104;45.456;11.064;2023-03-04T07:47:05;17.00;;;9.10;;
68744;SDS011;66104;45.456;11.064;2023-03-04T07:49:42;16.80;;;9.90;;
68744;SDS011;66104;45.456;11.064;2023-03-04T07:52:19;15.20;;;9.40;;
68744;SDS011;66104;45.456;11.064;2023-03-04T07:54:56;15.80;;;9.20;;
68744;SDS011;66104;45.456;11.064;2023-03-04T07:57:32;17.40;;;11.40;;
68744;SDS011;66104;45.456;11.064;2023-03-04T08:00:16;26.00;;;10.80;;
68744;SDS011;66104;45.456;11.064;2023-03-04T08:02:57;19.50;;;11.40;;
68744;SDS011;66104;45.456;11.064;2023-03-04T08:05:34;18.20;;;10.80;;
68744;SDS011;66104;45.456;11.064;2023-03-04T08:08:12;19.10;;;10.80;;
68744;SDS011;66104;45.456;11.064;2023-03-04T08:10:49;21.60;;;11.60;;
68744;SDS011;66104;45.456;11.064;2023-03-04T08:13:25;18.60;;;10.60;;
68744;SDS011;66104;45.456;11.064;2023-03-04T08:16:02;18.30;;;10.80;;
68744;SDS011;66104;45.456;11.064;2023-03-04T08:18:40;20.80;;;11.60;;
68744;SDS011;66104;45.456;11.064;2023-03-04T08:21:17;19.40;;;11.70;;
68744;SDS011;66104;45.456;11.064;2023-03-04T08:23:55;18.90;;;11.80;;
68744;SDS011;66104;45.456;11.064;2023-03-04T08:26:41;23.90;;;13.20;;
68744;SDS011;66104;45.456;11.064;2023-03-04T08:29:21;29.70;;;12.80;;
68744;SDS011;66104;45.456;11.064;2023-03-04T08:31:58;18.20;;;11.10;;
68744;SDS011;66104;45.456;11.064;2023-03-04T08:34:34;21.80;;;12.60;;
68744;SDS011;66104;45.456;11.064;2023-03-04T08:37:14;20.20;;;12.80;;
68744;SDS011;66104;45.456;11.064;2023-03-04T08:39:52;22.40;;;12.30;;
68744;SDS011;66104;45.456;11.064;2023-03-04T08:42:28;21.30;;;13.20;;
68744;SDS011;66104;45.456;11.064;2023-03-04T08:45:09;23.10;;;12.20;;
68744;SDS011;66104;45.456;11.064;2023-03-04T08:47:46;22.60;;;11.40;;
68744;SDS011;66104;45.456;11.064;2023-03-04T08:50:23;18.50;;;10.60;;
68744;SDS011;66104;45.456;11.064;2023-03-04T08:52:59;18.80;;;11.00;;
68744;SDS011;66104;45.456;11.064;2023-03-04T08:55:36;18.10;;;11.20;;
68744;SDS011;66104;45.456;11.064;2023-03-04T08:58:14;19.90;;;11.00;;
68744;SDS011;66104;45.456;11.064;2023-03-04T09:00:52;20.90;;;11.80;;
68744;SDS011;66104;45.456;11.064;2023-03-04T09:03:29;20.20;;;12.80;;
68744;SDS011;66104;45.456;11.064;2023-03-04T09:06:08;23.90;;;13.10;;
68744;SDS011;66104;45.456;11.064;2023-03-04T09:08:45;22.50;;;13.50;;
68744;SDS011;66104;45.456;11.064;2023-03-04T09:11:22;22.20;;;13.10;;
68744;SDS011;66104;45.456;11.064;2023-03-04T09:13:59;18.70;;;11.70;;
68744;SDS011;66104;45.456;11.064;2023-03-04T09:16:36;20.90;;;12.60;;
68744;SDS011;66104;45.456;11.064;2023-03-04T09:19:13;22.90;;;13.10;;
68744;SDS011;66104;45.456;11.064;2023-03-04T09:21:49;20.30;;;11.90;;
68744;SDS011;66104;45.456;11.064;2023-03-04T09:24:26;16.00;;;10.40;;
68744;SDS011;66104;45.456;11.064;2023-03-04T09:27:03;18.50;;;12.60;;
68744;SDS011;66104;45.456;11.064;2023-03-04T09:29:40;20.70;;;12.40;;
68744;SDS011;66104;45.456;11.064;2023-03-04T09:32:17;17.10;;;11.00;;
68744;SDS011;66104;45.456;11.064;2023-03-04T09:34:54;20.60;;;11.50;;
68744;SDS011;66104;45.456;11.064;2023-03-04T09:37:30;22.10;;;12.20;;
68744;SDS011;66104;45.456;11.064;2023-03-04T09:40:10;18.90;;;11.50;;
68744;SDS011;66104;45.456;11.064;2023-03-04T09:42:56;20.80;;;11.40;;
68744;SDS011;66104;45.456;11.064;2023-03-04T09:45:39;18.70;;;11.30;;
68744;SDS011;66104;45.456;11.064;2023-03-04T09:48:22;22.20;;;11.80;;
68744;SDS011;66104;45.456;11.064;2023-03-04T09:51:10;22.20;;;11.20;;
68744;SDS011;66104;45.456;11.064;2023-03-04T09:54:10;16.60;;;9.60;;
68744;SDS011;66104;45.456;11.064;2023-03-04T09:57:16;17.80;;;9.90;;
68744;SDS011;66104;45.456;11.064;2023-03-04T10:00:09;18.20;;;9.80;;
68744;SDS011;66104;45.456;11.064;2023-03-04T10:05:59;16.20;;;10.80;;
68744;SDS011;66104;45.456;11.064;2023-03-04T10:08:48;18.60;;;11.50;;
68744;SDS011;66104;45.456;11.064;2023-03-04T10:11:31;17.60;;;10.70;;
68744;SDS011;66104;45.456;11.064;2023-03-04T10:14:29;14.50;;;9.60;;
68744;SDS011;66104;45.456;11.064;2023-03-04T10:17:15;15.70;;;9.80;;
68744;SDS011;66104;45.456;11.064;2023-03-04T10:20:00;18.00;;;9.90;;
68744;SDS011;66104;45.456;11.064;2023-03-04T10:22:47;16.50;;;10.40;;
68744;SDS011;66104;45.456;11.064;2023-03-04T10:25:26;23.90;;;12.10;;
68744;SDS011;66104;45.456;11.064;2023-03-04T10:28:09;21.80;;;11.90;;
68744;SDS011;66104;45.456;11.064;2023-03-04T10:30:51;19.90;;;11.10;;
68744;SDS011;66104;45.456;11.064;2023-03-04T10:33:36;19.20;;;11.40;;
68744;SDS011;66104;45.456;11.064;2023-03-04T10:39:24;18.00;;;10.30;;
68744;SDS011;66104;45.456;11.064;2023-03-04T10:42:03;17.40;;;10.90;;
68744;SDS011;66104;45.456;11.064;2023-03-04T10:44:57;19.30;;;12.80;;
68744;SDS011;66104;45.456;11.064;2023-03-04T10:47:34;20.70;;;12.30;;
68744;SDS011;66104;45.456;11.064;2023-03-04T10:50:23;20.90;;;13.60;;
68744;SDS011;66104;45.456;11.064;2023-03-04T10:53:01;20.40;;;12.40;;
68744;SDS011;66104;45.456;11.064;2023-03-04T10:55:45;20.80;;;12.80;;
68744;SDS011;66104;45.456;11.064;2023-03-04T10:58:22;19.80;;;12.90;;
68744;SDS011;66104;45.456;11.064;2023-03-04T11:01:04;28.60;;;13.40;;
68744;SDS011;66104;45.456;11.064;2023-03-04T11:03:49;25.10;;;13.80;;
68744;SDS011;66104;45.456;11.064;2023-03-04T11:06:27;23.50;;;12.50;;
68744;SDS011;66104;45.456;11.064;2023-03-04T11:09:03;25.20;;;13.10;;
68744;SDS011;66104;45.456;11.064;2023-03-04T11:11:53;20.70;;;13.00;;
68744;SDS011;66104;45.456;11.064;2023-03-04T11:14:36;17.90;;;12.10;;
68744;SDS011;66104;45.456;11.064;2023-03-04T11:17:42;20.60;;;14.10;;
68744;SDS011;66104;45.456;11.064;2023-03-04T11:20:27;23.80;;;13.70;;
68744;SDS011;66104;45.456;11.064;2023-03-04T11:23:13;25.10;;;15.40;;
68744;SDS011;66104;45.456;11.064;2023-03-04T11:25:54;23.70;;;15.60;;
68744;SDS011;66104;45.456;11.064;2023-03-04T11:28:41;21.70;;;13.70;;
68744;SDS011;66104;45.456;11.064;2023-03-04T11:31:26;19.60;;;13.60;;
68744;SDS011;66104;45.456;11.064;2023-03-04T11:34:11;23.20;;;14.80;;
68744;SDS011;66104;45.456;11.064;2023-03-04T11:37:00;19.50;;;13.40;;
68744;SDS011;66104;45.456;11.064;2023-03-04T11:39:43;23.10;;;13.80;;
68744;SDS011;66104;45.456;11.064;2023-03-04T11:42:27;23.70;;;14.30;;
68744;SDS011;66104;45.456;11.064;2023-03-04T11:45:13;19.90;;;12.70;;
68744;SDS011;66104;45.456;11.064;2023-03-04T11:48:07;25.50;;;14.80;;
68744;SDS011;66104;45.456;11.064;2023-03-04T11:50:53;23.30;;;13.40;;
68744;SDS011;66104;45.456;11.064;2023-03-04T11:53:43;20.50;;;13.90;;
68744;SDS011;66104;45.456;11.064;2023-03-04T11:56:38;25.50;;;15.00;;
68744;SDS011;66104;45.456;11.064;2023-03-04T12:02:26;22.70;;;15.70;;
68744;SDS011;66104;45.456;11.064;2023-03-04T12:05:31;25.00;;;14.70;;
68744;SDS011;66104;45.456;11.064;2023-03-04T12:11:33;18.90;;;12.40;;
68744;SDS011;66104;45.456;11.064;2023-03-04T12:14:23;23.30;;;14.50;;
68744;SDS011;66104;45.456;11.064;2023-03-04T12:20:33;22.60;;;15.00;;
68744;SDS011;66104;45.456;11.064;2023-03-04T12:23:37;27.50;;;16.30;;
68744;SDS011;66104;45.456;11.064;2023-03-04T12:26:41;20.70;;;14.30;;
68744;SDS011;66104;45.456;11.064;2023-03-04T12:29:28;27.20;;;15.70;;
68744;SDS011;66104;45.456;11.064;2023-03-04T12:32:15;23.90;;;15.20;;
68744;SDS011;66104;45.456;11.064;2023-03-04T12:35:04;25.50;;;15.20;;
68744;SDS011;66104;45.456;11.064;2023-03-04T12:38:05;26.90;;;14.90;;
68744;SDS011;66104;45.456;11.064;2023-03-04T12:40:59;24.60;;;14.70;;
68744;SDS011;66104;45.456;11.064;2023-03-04T12:43:52;26.00;;;15.30;;
68744;SDS011;66104;45.456;11.064;2023-03-04T12:46:46;22.10;;;14.70;;
68744;SDS011;66104;45.456;11.064;2023-03-04T12:52:56;23.70;;;14.10;;
68744;SDS011;66104;45.456;11.064;2023-03-04T12:55:41;20.50;;;13.50;;
68744;SDS011;66104;45.456;11.064;2023-03-04T12:58:21;22.00;;;14.00;;
68744;SDS011;66104;45.456;11.064;2023-03-04T13:01:05;22.00;;;14.00;;
68744;SDS011;66104;45.456;11.064;2023-03-04T13:03:54;23.80;;;14.80;;
68744;SDS011;66104;45.456;11.064;2023-03-04T13:06:44;23.40;;;15.40;;
68744;SDS011;66104;45.456;11.064;2023-03-04T13:09:31;23.60;;;15.40;;
68744;SDS011;66104;45.456;11.064;2023-03-04T13:12:18;23.50;;;15.10;;
68744;SDS011;66104;45.456;11.064;2023-03-04T13:15:27;27.20;;;15.10;;
68744;SDS011;66104;45.456;11.064;2023-03-04T13:18:31;24.80;;;14.90;;
68744;SDS011;66104;45.456;11.064;2023-03-04T13:21:25;24.30;;;14.90;;
68744;SDS011;66104;45.456;11.064;2023-03-04T13:27:47;23.20;;;15.80;;
68744;SDS011;66104;45.456;11.064;2023-03-04T13:30:40;23.60;;;14.10;;
68744;SDS011;66104;45.456;11.064;2023-03-04T13:33:59;21.90;;;14.30;;
68744;SDS011;66104;45.456;11.064;2023-03-04T13:36:58;21.80;;;14.80;;
68744;SDS011;66104;45.456;11.064;2023-03-04T13:39:36;27.50;;;15.50;;
68744;SDS011;66104;45.456;11.064;2023-03-04T13:42:44;28.60;;;15.50;;
68744;SDS011;66104;45.456;11.064;2023-03-04T13:45:34;21.60;;;14.00;;
68744;SDS011;66104;45.456;11.064;2023-03-04T13:48:25;24.60;;;14.00;;
68744;SDS011;66104;45.456;11.064;2023-03-04T13:51:17;26.70;;;15.50;;
68744;SDS011;66104;45.456;11.064;2023-03-04T13:54:14;23.00;;;14.20;;
68744;SDS011;66104;45.456;11.064;2023-03-04T13:57:14;22.70;;;14.60;;
68744;SDS011;66104;45.456;11.064;2023-03-04T13:59:55;23.70;;;15.20;;
68744;SDS011;66104;45.456;11.064;2023-03-04T14:02:34;24.60;;;16.70;;
68744;SDS011;66104;45.456;11.064;2023-03-04T14:05:13;25.90;;;15.70;;
68744;SDS011;66104;45.456;11.064;2023-03-04T14:07:51;25.10;;;16.30;;
68744;SDS011;66104;45.456;11.064;2023-03-04T14:10:28;25.60;;;16.50;;
68744;SDS011;66104;45.456;11.064;2023-03-04T14:13:07;26.80;;;16.00;;
68744;SDS011;66104;45.456;11.064;2023-03-04T14:15:55;24.30;;;16.30;;
68744;SDS011;66104;45.456;11.064;2023-03-04T14:18:33;26.00;;;17.40;;
68744;SDS011;66104;45.456;11.064;2023-03-04T14:21:15;26.10;;;16.60;;
68744;SDS011;66104;45.456;11.064;2023-03-04T14:24:01;26.50;;;16.40;;
68744;SDS011;66104;45.456;11.064;2023-03-04T14:26:39;24.70;;;14.70;;
68744;SDS011;66104;45.456;11.064;2023-03-04T14:29:27;24.40;;;16.10;;
68744;SDS011;66104;45.456;11.064;2023-03-04T14:32:06;23.90;;;16.40;;
68744;SDS011;66104;45.456;11.064;2023-03-04T14:34:43;25.10;;;15.20;;
68744;SDS011;66104;45.456;11.064;2023-03-04T14:37:25;24.70;;;15.20;;
68744;SDS011;66104;45.456;11.064;2023-03-04T14:40:17;26.70;;;16.20;;
68744;SDS011;66104;45.456;11.064;2023-03-04T14:42:59;26.90;;;15.30;;
68744;SDS011;66104;45.456;11.064;2023-03-04T14:45:42;27.40;;;16.60;;
68744;SDS011;66104;45.456;11.064;2023-03-04T14:48:23;25.30;;;15.60;;
68744;SDS011;66104;45.456;11.064;2023-03-04T14:51:03;23.20;;;15.70;;
68744;SDS011;66104;45.456;11.064;2023-03-04T14:53:57;21.70;;;14.80;;
68744;SDS011;66104;45.456;11.064;2023-03-04T14:56:35;22.90;;;15.20;;
68744;SDS011;66104;45.456;11.064;2023-03-04T14:59:15;23.20;;;15.40;;
68744;SDS011;66104;45.456;11.064;2023-03-04T15:02:20;23.30;;;13.70;;
68744;SDS011;66104;45.456;11.064;2023-03-04T15:05:10;24.70;;;15.70;;
68744;SDS011;66104;45.456;11.064;2023-03-04T15:07:57;29.80;;;16.70;;
68744;SDS011;66104;45.456;11.064;2023-03-04T15:10:36;27.60;;;16.60;;
68744;SDS011;66104;45.456;11.064;2023-03-04T15:13:12;25.20;;;16.90;;
68744;SDS011;66104;45.456;11.064;2023-03-04T15:16:11;22.70;;;14.30;;
68744;SDS011;66104;45.456;11.064;2023-03-04T15:19:01;23.90;;;16.10;;
68744;SDS011;66104;45.456;11.064;2023-03-04T15:21:40;25.70;;;16.30;;
68744;SDS011;66104;45.456;11.064;2023-03-04T15:24:16;25.10;;;16.40;;
68744;SDS011;66104;45.456;11.064;2023-03-04T15:26:54;26.40;;;16.20;;
68744;SDS011;66104;45.456;11.064;2023-03-04T15:29:30;27.20;;;16.70;;
68744;SDS011;66104;45.456;11.064;2023-03-04T15:32:08;24.70;;;16.70;;
68744;SDS011;66104;45.456;11.064;2023-03-04T15:34:45;27.00;;;17.10;;
68744;SDS011;66104;45.456;11.064;2023-03-04T15:37:25;25.30;;;15.90;;
68744;SDS011;66104;45.456;11.064;2023-03-04T15:40:02;24.30;;;14.70;;
68744;SDS011;66104;45.456;11.064;2023-03-04T15:42:48;23.70;;;14.70;;
68744;SDS011;66104;45.456;11.064;2023-03-04T15:45:27;26.30;;;16.20;;
68744;SDS011;66104;45.456;11.064;2023-03-04T15:48:09;22.90;;;15.60;;
68744;SDS011;66104;45.456;11.064;2023-03-04T15:50:48;26.50;;;15.90;;
68744;SDS011;66104;45.456;11.064;2023-03-04T15:53:32;23.80;;;15.30;;
68744;SDS011;66104;45.456;11.064;2023-03-04T15:56:14;24.50;;;15.20;;
68744;SDS011;66104;45.456;11.064;2023-03-04T15:58:54;23.70;;;14.80;;
68744;SDS011;66104;45.456;11.064;2023-03-04T16:01:32;23.60;;;15.00;;